AVA100A SKBO-SKPS
Flight info
| Callsign | AVA100A |
|---|---|
| Flight time | 1h 18m |
| Altitude | 23000 |
| Route | SOA1A OREGA Z009 PPN/N0428F240 W48 MER |
| Aircraft | A320/M-SDE3FGHIRWY/LB1 |
Departure
| Time | 2026-04-19 03:03 |
|---|---|
| Airport | El Dorado International Airport (SKBO) |
Arrival
| Time | 2026-04-19 04:21 |
|---|---|
| Airport | Antonio Nariño Airport (SKPS) |
| Time | Latitude | Longitude | Altitude | Speed | Heading |
|---|---|---|---|---|---|
| 2026-04-19 02:52 | 4.69704 | -74.14512 | 8365 ft | 0 kts | 304° |
| 2026-04-19 02:53 | 4.69704 | -74.14513 | 8365 ft | 1 kts | 304° |
| 2026-04-19 02:53 | 4.69741 | -74.14568 | 8365 ft | 19 kts | 306° |
| 2026-04-19 02:53 | 4.69806 | -74.14659 | 8365 ft | 17 kts | 302° |
| 2026-04-19 02:54 | 4.69855 | -74.14737 | 8365 ft | 14 kts | 271° |
| 2026-04-19 02:54 | 4.69789 | -74.14777 | 8365 ft | 19 kts | 215° |
| 2026-04-19 02:54 | 4.69695 | -74.14775 | 8364 ft | 15 kts | 118° |
| 2026-04-19 02:54 | 4.69621 | -74.14673 | 8364 ft | 25 kts | 127° |
| 2026-04-19 02:55 | 4.69508 | -74.14522 | 8365 ft | 28 kts | 126° |
| 2026-04-19 02:55 | 4.69394 | -74.14367 | 8365 ft | 27 kts | 127° |
| 2026-04-19 02:55 | 4.69270 | -74.14208 | 8366 ft | 18 kts | 127° |
| 2026-04-19 02:55 | 4.69214 | -74.14135 | 8366 ft | 15 kts | 128° |
| 2026-04-19 02:56 | 4.69122 | -74.14085 | 8365 ft | 7 kts | 201° |
| 2026-04-19 02:56 | 4.69121 | -74.14087 | 8365 ft | 0 kts | 219° |
| 2026-04-19 02:57 | 4.69116 | -74.14090 | 8366 ft | 5 kts | 217° |
| 2026-04-19 02:57 | 4.69090 | -74.14110 | 8366 ft | 0 kts | 217° |
| 2026-04-19 02:59 | 4.69060 | -74.14133 | 8366 ft | 14 kts | 217° |
| 2026-04-19 02:59 | 4.69034 | -74.14243 | 8366 ft | 22 kts | 266° |
| 2026-04-19 02:59 | 4.69058 | -74.14296 | 8366 ft | 0 kts | 308° |
| 2026-04-19 03:02 | 4.69088 | -74.14335 | 8365 ft | 15 kts | 308° |
| 2026-04-19 03:02 | 4.69229 | -74.14519 | 8364 ft | 70 kts | 307° |
| 2026-04-19 03:02 | 4.69682 | -74.15112 | 8365 ft | 136 kts | 308° |
| 2026-04-19 03:02 | 4.70404 | -74.16075 | 8462 ft | 202 kts | 307° |
| 2026-04-19 03:03 | 4.71270 | -74.17253 | 9609 ft | 210 kts | 308° |
| 2026-04-19 03:03 | 4.72057 | -74.18293 | 10721 ft | 214 kts | 309° |
| 2026-04-19 03:03 | 4.73004 | -74.19545 | 11598 ft | 234 kts | 306° |
| 2026-04-19 03:03 | 4.73596 | -74.20654 | 12000 ft | 251 kts | 293° |
| 2026-04-19 03:04 | 4.74158 | -74.22323 | 12052 ft | 292 kts | 287° |
| 2026-04-19 03:04 | 4.74682 | -74.24406 | 12039 ft | 319 kts | 284° |
| 2026-04-19 03:04 | 4.74883 | -74.26303 | 12034 ft | 326 kts | 266° |
| 2026-04-19 03:04 | 4.74527 | -74.28502 | 12029 ft | 329 kts | 260° |
| 2026-04-19 03:05 | 4.74044 | -74.30738 | 12143 ft | 334 kts | 259° |
| 2026-04-19 03:05 | 4.73521 | -74.32989 | 13120 ft | 336 kts | 258° |
| 2026-04-19 03:05 | 4.72998 | -74.35277 | 14176 ft | 338 kts | 259° |
| 2026-04-19 03:05 | 4.72492 | -74.37588 | 15027 ft | 341 kts | 259° |
| 2026-04-19 03:06 | 4.72004 | -74.39927 | 15866 ft | 345 kts | 259° |
| 2026-04-19 03:06 | 4.71518 | -74.42266 | 16655 ft | 350 kts | 257° |
| 2026-04-19 03:06 | 4.70471 | -74.44479 | 17395 ft | 359 kts | 234° |
| 2026-04-19 03:06 | 4.68761 | -74.46326 | 18173 ft | 365 kts | 223° |
| 2026-04-19 03:07 | 4.66763 | -74.47920 | 18912 ft | 370 kts | 217° |
| 2026-04-19 03:07 | 4.64629 | -74.49385 | 19594 ft | 374 kts | 215° |
| 2026-04-19 03:07 | 4.62446 | -74.50828 | 20296 ft | 377 kts | 215° |
| 2026-04-19 03:07 | 4.60268 | -74.52306 | 20987 ft | 380 kts | 216° |
| 2026-04-19 03:08 | 4.58099 | -74.53847 | 21665 ft | 383 kts | 217° |
| 2026-04-19 03:08 | 4.55947 | -74.55445 | 22329 ft | 386 kts | 218° |
| 2026-04-19 03:08 | 4.53797 | -74.57087 | 22929 ft | 390 kts | 219° |
| 2026-04-19 03:08 | 4.51644 | -74.58754 | 23143 ft | 391 kts | 219° |
| 2026-04-19 03:09 | 4.49550 | -74.60382 | 23179 ft | 377 kts | 219° |
| 2026-04-19 03:09 | 4.47490 | -74.61978 | 23177 ft | 365 kts | 219° |
| 2026-04-19 03:09 | 4.45518 | -74.63497 | 23173 ft | 361 kts | 219° |
| 2026-04-19 03:09 | 4.43524 | -74.65026 | 23163 ft | 360 kts | 218° |
| 2026-04-19 03:10 | 4.41507 | -74.66569 | 23160 ft | 360 kts | 219° |
| 2026-04-19 03:10 | 4.39711 | -74.68250 | 23157 ft | 358 kts | 230° |
| 2026-04-19 03:10 | 4.38287 | -74.70294 | 23152 ft | 357 kts | 242° |
| 2026-04-19 03:10 | 4.37153 | -74.72509 | 23147 ft | 357 kts | 243° |
| 2026-04-19 03:11 | 4.36021 | -74.74719 | 23133 ft | 358 kts | 243° |
| 2026-04-19 03:11 | 4.34879 | -74.76940 | 23132 ft | 358 kts | 243° |
| 2026-04-19 03:11 | 4.33736 | -74.79153 | 23124 ft | 358 kts | 243° |
| 2026-04-19 03:11 | 4.32592 | -74.81363 | 23114 ft | 358 kts | 243° |
| 2026-04-19 03:12 | 4.31447 | -74.83578 | 23108 ft | 358 kts | 243° |
| 2026-04-19 03:12 | 4.30305 | -74.85788 | 23096 ft | 358 kts | 243° |
| 2026-04-19 03:12 | 4.29165 | -74.88002 | 23093 ft | 358 kts | 243° |
| 2026-04-19 03:12 | 4.28023 | -74.90221 | 23086 ft | 358 kts | 243° |
| 2026-04-19 03:13 | 4.26882 | -74.92437 | 23080 ft | 358 kts | 243° |
| 2026-04-19 03:13 | 4.25741 | -74.94654 | 23075 ft | 358 kts | 243° |
| 2026-04-19 03:13 | 4.24602 | -74.96870 | 23074 ft | 358 kts | 243° |
| 2026-04-19 03:13 | 4.23462 | -74.99082 | 23074 ft | 358 kts | 243° |
| 2026-04-19 03:14 | 4.22485 | -75.00970 | 23073 ft | 358 kts | 243° |
| 2026-04-19 03:14 | 4.21339 | -75.03187 | 23073 ft | 358 kts | 243° |
| 2026-04-19 03:14 | 4.20070 | -75.05316 | 23070 ft | 359 kts | 234° |
| 2026-04-19 03:14 | 4.19072 | -75.06649 | 23076 ft | 359 kts | 234° |
| 2026-04-19 03:15 | 4.17573 | -75.08645 | 23081 ft | 359 kts | 234° |
| 2026-04-19 03:15 | 4.16070 | -75.10648 | 23084 ft | 359 kts | 234° |
| 2026-04-19 03:15 | 4.14574 | -75.12646 | 23089 ft | 359 kts | 234° |
| 2026-04-19 03:15 | 4.12598 | -75.15291 | 23104 ft | 359 kts | 234° |
| 2026-04-19 03:16 | 4.11578 | -75.16655 | 23107 ft | 359 kts | 234° |
| 2026-04-19 03:16 | 4.10080 | -75.18656 | 23114 ft | 359 kts | 234° |
| 2026-04-19 03:16 | 4.08582 | -75.20655 | 23124 ft | 359 kts | 234° |
| 2026-04-19 03:16 | 4.07081 | -75.22656 | 23128 ft | 359 kts | 234° |
| 2026-04-19 03:17 | 4.05585 | -75.24654 | 23127 ft | 359 kts | 234° |
| 2026-04-19 03:17 | 4.04088 | -75.26657 | 23127 ft | 359 kts | 234° |
| 2026-04-19 03:17 | 4.02595 | -75.28657 | 23127 ft | 359 kts | 234° |
| 2026-04-19 03:17 | 4.01106 | -75.30651 | 23128 ft | 358 kts | 234° |
| 2026-04-19 03:18 | 3.99609 | -75.32654 | 23129 ft | 363 kts | 234° |
| 2026-04-19 03:18 | 3.98050 | -75.34736 | 23243 ft | 383 kts | 234° |
| 2026-04-19 03:18 | 3.96411 | -75.36922 | 23378 ft | 401 kts | 234° |
| 2026-04-19 03:18 | 3.94707 | -75.39197 | 23509 ft | 416 kts | 234° |
| 2026-04-19 03:19 | 3.92938 | -75.41556 | 23645 ft | 430 kts | 234° |
| 2026-04-19 03:19 | 3.91146 | -75.43949 | 23763 ft | 442 kts | 234° |
| 2026-04-19 03:19 | 3.89268 | -75.46456 | 23871 ft | 453 kts | 234° |
| 2026-04-19 03:19 | 3.87343 | -75.48957 | 24016 ft | 461 kts | 230° |
| 2026-04-19 03:20 | 3.84966 | -75.51167 | 24318 ft | 465 kts | 219° |
| 2026-04-19 03:20 | 3.82420 | -75.53165 | 24727 ft | 465 kts | 219° |
| 2026-04-19 03:20 | 3.79891 | -75.55153 | 25196 ft | 464 kts | 219° |
| 2026-04-19 03:20 | 3.77342 | -75.57157 | 25700 ft | 462 kts | 219° |
| 2026-04-19 03:21 | 3.74823 | -75.59141 | 26212 ft | 460 kts | 219° |
| 2026-04-19 03:21 | 3.72411 | -75.61047 | 26724 ft | 459 kts | 219° |
| 2026-04-19 03:21 | 3.69908 | -75.63025 | 27279 ft | 457 kts | 219° |
| 2026-04-19 03:21 | 3.67415 | -75.64995 | 27862 ft | 455 kts | 219° |
| 2026-04-19 03:22 | 3.64934 | -75.66954 | 28429 ft | 454 kts | 219° |
| 2026-04-19 03:22 | 3.62460 | -75.68904 | 29020 ft | 452 kts | 218° |
| 2026-04-19 03:22 | 3.59987 | -75.70851 | 29633 ft | 451 kts | 218° |
| 2026-04-19 03:22 | 3.57521 | -75.72792 | 30242 ft | 449 kts | 218° |
| 2026-04-19 03:23 | 3.55074 | -75.74721 | 30779 ft | 448 kts | 218° |
| 2026-04-19 03:23 | 3.52627 | -75.76651 | 31310 ft | 447 kts | 218° |
| 2026-04-19 03:23 | 3.50211 | -75.78557 | 31846 ft | 446 kts | 218° |
| 2026-04-19 03:23 | 3.47775 | -75.80477 | 32385 ft | 445 kts | 218° |
| 2026-04-19 03:24 | 3.45351 | -75.82387 | 32929 ft | 444 kts | 218° |
| 2026-04-19 03:24 | 3.42920 | -75.84300 | 33485 ft | 443 kts | 218° |
| 2026-04-19 03:24 | 3.40527 | -75.86183 | 34035 ft | 442 kts | 218° |
| 2026-04-19 03:24 | 3.38117 | -75.88081 | 34536 ft | 441 kts | 218° |
| 2026-04-19 03:25 | 3.35703 | -75.89978 | 34999 ft | 440 kts | 218° |
| 2026-04-19 03:25 | 3.33305 | -75.91860 | 35463 ft | 439 kts | 218° |
| 2026-04-19 03:25 | 3.30907 | -75.93746 | 35935 ft | 437 kts | 218° |
| 2026-04-19 03:25 | 3.28512 | -75.95634 | 36407 ft | 436 kts | 218° |
| 2026-04-19 03:26 | 3.26138 | -75.97506 | 36869 ft | 435 kts | 218° |
| 2026-04-19 03:26 | 3.23765 | -75.99378 | 37330 ft | 434 kts | 218° |
| 2026-04-19 03:26 | 3.21562 | -76.01116 | 37762 ft | 432 kts | 218° |
| 2026-04-19 03:26 | 3.19865 | -76.02452 | 38018 ft | 433 kts | 218° |
| 2026-04-19 03:27 | 3.17416 | -76.04379 | 38115 ft | 432 kts | 218° |
| 2026-04-19 03:27 | 3.12695 | -76.08086 | 38123 ft | 431 kts | 218° |
| 2026-04-19 03:28 | 3.07979 | -76.11801 | 38121 ft | 431 kts | 218° |
| 2026-04-19 03:28 | 3.03286 | -76.15495 | 38115 ft | 431 kts | 218° |
| 2026-04-19 03:29 | 2.98599 | -76.19179 | 38117 ft | 431 kts | 218° |
| 2026-04-19 03:29 | 2.93843 | -76.22882 | 38111 ft | 430 kts | 217° |
| 2026-04-19 03:30 | 2.89131 | -76.26513 | 38117 ft | 429 kts | 217° |
| 2026-04-19 03:30 | 2.84416 | -76.30156 | 38116 ft | 429 kts | 217° |
| 2026-04-19 03:31 | 2.79758 | -76.33761 | 38108 ft | 429 kts | 217° |
| 2026-04-19 03:31 | 2.75028 | -76.37415 | 38114 ft | 430 kts | 217° |
| 2026-04-19 03:32 | 2.70281 | -76.41082 | 38130 ft | 431 kts | 218° |
| 2026-04-19 03:32 | 2.65535 | -76.44758 | 38150 ft | 432 kts | 218° |
| 2026-04-19 03:33 | 2.60816 | -76.48481 | 38163 ft | 431 kts | 219° |
| 2026-04-19 03:33 | 2.56174 | -76.52257 | 38181 ft | 432 kts | 219° |
| 2026-04-19 03:34 | 2.51527 | -76.56045 | 38196 ft | 432 kts | 219° |
| 2026-04-19 03:34 | 2.46958 | -76.59743 | 38174 ft | 432 kts | 219° |
| 2026-04-19 03:34 | 2.44619 | -76.61633 | 37625 ft | 432 kts | 219° |
| 2026-04-19 03:35 | 2.42466 | -76.63377 | 36910 ft | 434 kts | 219° |
| 2026-04-19 03:35 | 2.40110 | -76.65292 | 36125 ft | 435 kts | 219° |
| 2026-04-19 03:35 | 2.37752 | -76.67215 | 35155 ft | 441 kts | 219° |
| 2026-04-19 03:35 | 2.35353 | -76.69172 | 34163 ft | 448 kts | 219° |
| 2026-04-19 03:36 | 2.32931 | -76.71149 | 33334 ft | 448 kts | 219° |
| 2026-04-19 03:36 | 2.30527 | -76.73113 | 32625 ft | 444 kts | 219° |
| 2026-04-19 03:36 | 2.28146 | -76.75056 | 31974 ft | 440 kts | 219° |
| 2026-04-19 03:36 | 2.25781 | -76.76983 | 31325 ft | 435 kts | 219° |
| 2026-04-19 03:37 | 2.23447 | -76.78883 | 30729 ft | 431 kts | 219° |
| 2026-04-19 03:37 | 2.21129 | -76.80764 | 30128 ft | 427 kts | 219° |
| 2026-04-19 03:37 | 2.18844 | -76.82618 | 29434 ft | 422 kts | 219° |
| 2026-04-19 03:37 | 2.16583 | -76.84455 | 28758 ft | 418 kts | 219° |
| 2026-04-19 03:38 | 2.14322 | -76.86295 | 28107 ft | 414 kts | 219° |
| 2026-04-19 03:38 | 2.12100 | -76.88107 | 27464 ft | 411 kts | 219° |
| 2026-04-19 03:38 | 2.09893 | -76.89907 | 26829 ft | 407 kts | 219° |
| 2026-04-19 03:38 | 2.07710 | -76.91685 | 26219 ft | 403 kts | 220° |
| 2026-04-19 03:39 | 2.05543 | -76.93449 | 25616 ft | 400 kts | 220° |
| 2026-04-19 03:39 | 2.03424 | -76.95173 | 25036 ft | 397 kts | 220° |
| 2026-04-19 03:39 | 2.01285 | -76.96910 | 24456 ft | 394 kts | 220° |
| 2026-04-19 03:39 | 1.99170 | -76.98625 | 23886 ft | 390 kts | 220° |
| 2026-04-19 03:40 | 1.97085 | -77.00317 | 22872 ft | 382 kts | 220° |
| 2026-04-19 03:40 | 1.95032 | -77.01987 | 21819 ft | 378 kts | 220° |
| 2026-04-19 03:40 | 1.93013 | -77.03633 | 20849 ft | 372 kts | 220° |
| 2026-04-19 03:40 | 1.91021 | -77.05260 | 19900 ft | 367 kts | 220° |
| 2026-04-19 03:41 | 1.89054 | -77.06863 | 18984 ft | 362 kts | 220° |
| 2026-04-19 03:41 | 1.87113 | -77.08442 | 18072 ft | 358 kts | 220° |
| 2026-04-19 03:41 | 1.85194 | -77.10000 | 17090 ft | 353 kts | 220° |
| 2026-04-19 03:41 | 1.83304 | -77.11537 | 16199 ft | 348 kts | 221° |
| 2026-04-19 03:42 | 1.81479 | -77.13020 | 15917 ft | 326 kts | 221° |
| 2026-04-19 03:42 | 1.79779 | -77.14400 | 15692 ft | 306 kts | 221° |
| 2026-04-19 03:42 | 1.78048 | -77.15589 | 15181 ft | 300 kts | 211° |
| 2026-04-19 03:42 | 1.76225 | -77.16567 | 14611 ft | 297 kts | 211° |
| 2026-04-19 03:43 | 1.74407 | -77.17538 | 14068 ft | 294 kts | 211° |
| 2026-04-19 03:43 | 1.72609 | -77.18497 | 13468 ft | 291 kts | 211° |
| 2026-04-19 03:43 | 1.70844 | -77.19439 | 13165 ft | 285 kts | 211° |
| 2026-04-19 03:43 | 1.69091 | -77.20376 | 13114 ft | 285 kts | 211° |
| 2026-04-19 03:44 | 1.67340 | -77.21312 | 13130 ft | 286 kts | 211° |
| 2026-04-19 03:44 | 1.65585 | -77.22253 | 13146 ft | 287 kts | 211° |
| 2026-04-19 03:44 | 1.63828 | -77.23197 | 13037 ft | 287 kts | 211° |
| 2026-04-19 03:44 | 1.62066 | -77.24142 | 12669 ft | 288 kts | 211° |
| 2026-04-19 03:45 | 1.60305 | -77.25086 | 12343 ft | 287 kts | 210° |
| 2026-04-19 03:45 | 1.58553 | -77.26026 | 12038 ft | 285 kts | 210° |
| 2026-04-19 03:45 | 1.56803 | -77.26964 | 11732 ft | 284 kts | 210° |
| 2026-04-19 03:45 | 1.55070 | -77.27893 | 11418 ft | 282 kts | 210° |
| 2026-04-19 03:46 | 1.53394 | -77.28789 | 11124 ft | 281 kts | 210° |
| 2026-04-19 03:46 | 1.51610 | -77.29729 | 10563 ft | 287 kts | 209° |
| 2026-04-19 03:46 | 1.49809 | -77.30641 | 9836 ft | 299 kts | 208° |
| 2026-04-19 03:46 | 1.47922 | -77.31579 | 9266 ft | 304 kts | 207° |
| 2026-04-19 03:47 | 1.46048 | -77.32503 | 8958 ft | 295 kts | 207° |
| 2026-04-19 03:47 | 1.44242 | -77.33396 | 8720 ft | 282 kts | 207° |
| 2026-04-19 03:47 | 1.42529 | -77.34243 | 8675 ft | 265 kts | 207° |
| 2026-04-19 03:47 | 1.40925 | -77.35041 | 8674 ft | 250 kts | 208° |
| 2026-04-19 03:48 | 1.39416 | -77.35796 | 8675 ft | 235 kts | 208° |
| 2026-04-19 03:48 | 1.37966 | -77.36433 | 8552 ft | 226 kts | 194° |
| 2026-04-19 03:48 | 1.36680 | -77.36501 | 8268 ft | 227 kts | 171° |
| 2026-04-19 03:48 | 1.35235 | -77.35911 | 7965 ft | 215 kts | 144° |
| 2026-04-19 03:49 | 1.34303 | -77.34880 | 7802 ft | 193 kts | 120° |
| 2026-04-19 03:49 | 1.34012 | -77.34247 | 7628 ft | 188 kts | 107° |
| 2026-04-19 03:49 | 1.33881 | -77.33449 | 7737 ft | 180 kts | 89° |
| 2026-04-19 03:49 | 1.34210 | -77.32055 | 8075 ft | 227 kts | 62° |
| 2026-04-19 03:50 | 1.35403 | -77.30844 | 8022 ft | 257 kts | 32° |
| 2026-04-19 03:50 | 1.36912 | -77.30121 | 7307 ft | 239 kts | 20° |
| 2026-04-19 03:50 | 1.38508 | -77.29683 | 6263 ft | 235 kts | 12° |
| 2026-04-19 03:50 | 1.39751 | -77.29362 | 6355 ft | 196 kts | 17° |
| 2026-04-19 03:51 | 1.40958 | -77.28979 | 6375 ft | 170 kts | 18° |
| 2026-04-19 03:51 | 1.42156 | -77.28595 | 7197 ft | 192 kts | 18° |
| 2026-04-19 03:51 | 1.43531 | -77.28154 | 7711 ft | 233 kts | 17° |
| 2026-04-19 03:51 | 1.45248 | -77.27671 | 7825 ft | 269 kts | 10° |
| 2026-04-19 03:52 | 1.46987 | -77.27617 | 7869 ft | 233 kts | 351° |
| 2026-04-19 03:52 | 1.48361 | -77.28218 | 7867 ft | 208 kts | 316° |
| 2026-04-19 03:52 | 1.49065 | -77.29428 | 7876 ft | 203 kts | 282° |
| 2026-04-19 03:52 | 1.49015 | -77.30819 | 7874 ft | 203 kts | 251° |
| 2026-04-19 03:53 | 1.48246 | -77.31991 | 7874 ft | 204 kts | 220° |
| 2026-04-19 03:53 | 1.46999 | -77.32660 | 7875 ft | 205 kts | 204° |
| 2026-04-19 03:53 | 1.45621 | -77.33234 | 7899 ft | 229 kts | 204° |
| 2026-04-19 03:53 | 1.44329 | -77.33776 | 7891 ft | 200 kts | 204° |
| 2026-04-19 03:54 | 1.43133 | -77.34280 | 7873 ft | 175 kts | 204° |
| 2026-04-19 03:54 | 1.42012 | -77.34753 | 7894 ft | 188 kts | 204° |
| 2026-04-19 03:54 | 1.40761 | -77.35285 | 7921 ft | 199 kts | 204° |
| 2026-04-19 03:54 | 1.39508 | -77.35817 | 7883 ft | 197 kts | 204° |
| 2026-04-19 03:55 | 1.38245 | -77.36325 | 7870 ft | 196 kts | 198° |
| 2026-04-19 03:55 | 1.36893 | -77.36489 | 7878 ft | 197 kts | 177° |
| 2026-04-19 03:55 | 1.35583 | -77.36115 | 7887 ft | 198 kts | 153° |
| 2026-04-19 03:55 | 1.34536 | -77.35234 | 7885 ft | 199 kts | 128° |
| 2026-04-19 03:56 | 1.34230 | -77.33947 | 8018 ft | 197 kts | 76° |
| 2026-04-19 03:56 | 1.35001 | -77.32825 | 7685 ft | 198 kts | 43° |
| 2026-04-19 03:56 | 1.35988 | -77.31890 | 6992 ft | 193 kts | 42° |
| 2026-04-19 03:56 | 1.36915 | -77.30936 | 6723 ft | 192 kts | 55° |
| 2026-04-19 03:57 | 1.37676 | -77.29846 | 6315 ft | 191 kts | 57° |
| 2026-04-19 03:57 | 1.38841 | -77.29334 | 5988 ft | 194 kts | 12° |
| 2026-04-19 03:57 | 1.40126 | -77.29066 | 6908 ft | 188 kts | 11° |
| 2026-04-19 03:57 | 1.41423 | -77.28816 | 7646 ft | 200 kts | 11° |
| 2026-04-19 03:58 | 1.42911 | -77.28521 | 7963 ft | 232 kts | 11° |
| 2026-04-19 03:58 | 1.44452 | -77.28219 | 8145 ft | 215 kts | 9° |
| 2026-04-19 03:58 | 1.45911 | -77.27928 | 8837 ft | 210 kts | 8° |
| 2026-04-19 03:58 | 1.47354 | -77.27871 | 9772 ft | 208 kts | 352° |
| 2026-04-19 03:59 | 1.48783 | -77.28105 | 10550 ft | 209 kts | 346° |
| 2026-04-19 03:59 | 1.50220 | -77.28411 | 11308 ft | 210 kts | 345° |
| 2026-04-19 03:59 | 1.51627 | -77.28735 | 11673 ft | 205 kts | 345° |
| 2026-04-19 03:59 | 1.53017 | -77.29063 | 11335 ft | 207 kts | 344° |
| 2026-04-19 04:00 | 1.54426 | -77.29397 | 10989 ft | 208 kts | 344° |
| 2026-04-19 04:00 | 1.55837 | -77.29735 | 10658 ft | 208 kts | 344° |
| 2026-04-19 04:00 | 1.57246 | -77.30075 | 10358 ft | 209 kts | 344° |
| 2026-04-19 04:00 | 1.58647 | -77.30410 | 10065 ft | 206 kts | 345° |
| 2026-04-19 04:01 | 1.60049 | -77.30745 | 9700 ft | 207 kts | 345° |
| 2026-04-19 04:01 | 1.62913 | -77.31448 | 8440 ft | 228 kts | 339° |
| 2026-04-19 04:01 | 1.63837 | -77.32008 | 8026 ft | 232 kts | 315° |
| 2026-04-19 04:02 | 1.64851 | -77.33900 | 7716 ft | 248 kts | 279° |
| 2026-04-19 04:02 | 1.64674 | -77.35637 | 7789 ft | 261 kts | 249° |
| 2026-04-19 04:02 | 1.63545 | -77.37131 | 8040 ft | 281 kts | 217° |
| 2026-04-19 04:02 | 1.61708 | -77.37796 | 8291 ft | 286 kts | 184° |
| 2026-04-19 04:03 | 1.60419 | -77.37622 | 8439 ft | 270 kts | 160° |
| 2026-04-19 04:03 | 1.58976 | -77.36578 | 8599 ft | 254 kts | 130° |
| 2026-04-19 04:03 | 1.57894 | -77.35189 | 8653 ft | 251 kts | 128° |
| 2026-04-19 04:03 | 1.56813 | -77.33825 | 8358 ft | 254 kts | 129° |
| 2026-04-19 04:04 | 1.55726 | -77.32476 | 8324 ft | 244 kts | 129° |
| 2026-04-19 04:04 | 1.54644 | -77.31159 | 8578 ft | 247 kts | 131° |
| 2026-04-19 04:04 | 1.53278 | -77.30143 | 8669 ft | 247 kts | 160° |
| 2026-04-19 04:04 | 1.51599 | -77.29918 | 8694 ft | 244 kts | 189° |
| 2026-04-19 04:05 | 1.50029 | -77.30479 | 8709 ft | 243 kts | 209° |
| 2026-04-19 04:05 | 1.48510 | -77.31253 | 8709 ft | 243 kts | 208° |
| 2026-04-19 04:05 | 1.47001 | -77.32013 | 8704 ft | 243 kts | 208° |
| 2026-04-19 04:05 | 1.45483 | -77.32773 | 8699 ft | 242 kts | 208° |
| 2026-04-19 04:06 | 1.43973 | -77.33526 | 8709 ft | 243 kts | 208° |
| 2026-04-19 04:06 | 1.42463 | -77.34279 | 8707 ft | 243 kts | 208° |
| 2026-04-19 04:06 | 1.40997 | -77.35010 | 8706 ft | 224 kts | 208° |
| 2026-04-19 04:06 | 1.39676 | -77.35671 | 8716 ft | 200 kts | 208° |
| 2026-04-19 04:07 | 1.38487 | -77.36260 | 8704 ft | 183 kts | 205° |
| 2026-04-19 04:07 | 1.37341 | -77.36523 | 8720 ft | 159 kts | 184° |
| 2026-04-19 04:07 | 1.36292 | -77.36403 | 8708 ft | 148 kts | 165° |
| 2026-04-19 04:07 | 1.35381 | -77.36002 | 8492 ft | 145 kts | 148° |
| 2026-04-19 04:08 | 1.34626 | -77.35343 | 8210 ft | 144 kts | 130° |
| 2026-04-19 04:08 | 1.34109 | -77.34500 | 7951 ft | 142 kts | 112° |
| 2026-04-19 04:08 | 1.33866 | -77.33558 | 7702 ft | 139 kts | 95° |
| 2026-04-19 04:08 | 1.33900 | -77.32608 | 7424 ft | 137 kts | 79° |
| 2026-04-19 04:09 | 1.34197 | -77.31716 | 7133 ft | 135 kts | 62° |
| 2026-04-19 04:09 | 1.34720 | -77.30950 | 6806 ft | 136 kts | 47° |
| 2026-04-19 04:09 | 1.35451 | -77.30351 | 6491 ft | 135 kts | 30° |
| 2026-04-19 04:09 | 1.36307 | -77.29983 | 6249 ft | 132 kts | 14° |
| 2026-04-19 04:10 | 1.37188 | -77.29753 | 6040 ft | 128 kts | 14° |
| 2026-04-19 04:10 | 1.38044 | -77.29552 | 6393 ft | 129 kts | 9° |
| 2026-04-19 04:10 | 1.38968 | -77.29350 | 6146 ft | 148 kts | 27° |
| 2026-04-19 04:10 | 1.39853 | -77.29036 | 6196 ft | 115 kts | 354° |
| 2026-04-19 04:11 | 1.40648 | -77.28982 | 5875 ft | 121 kts | 24° |
| 2026-04-19 04:11 | 1.41463 | -77.28658 | 6200 ft | 143 kts | 21° |
| 2026-04-19 04:11 | 1.42580 | -77.28267 | 6651 ft | 183 kts | 13° |
| 2026-04-19 04:11 | 1.43879 | -77.28132 | 7375 ft | 199 kts | 0° |
| 2026-04-19 04:12 | 1.45386 | -77.27973 | 7370 ft | 239 kts | 9° |
| 2026-04-19 04:12 | 1.47028 | -77.27843 | 7362 ft | 278 kts | 356° |
| 2026-04-19 04:12 | 1.49114 | -77.28120 | 7389 ft | 326 kts | 351° |
| 2026-04-19 04:12 | 1.51464 | -77.28486 | 7684 ft | 345 kts | 351° |
| 2026-04-19 04:13 | 1.53686 | -77.29085 | 8444 ft | 311 kts | 334° |
| 2026-04-19 04:13 | 1.55178 | -77.30369 | 8430 ft | 265 kts | 300° |
| 2026-04-19 04:13 | 1.55573 | -77.32002 | 8438 ft | 230 kts | 262° |
| 2026-04-19 04:13 | 1.54899 | -77.33298 | 8464 ft | 202 kts | 218° |
| 2026-04-19 04:14 | 1.53609 | -77.33679 | 8567 ft | 202 kts | 180° |
| 2026-04-19 04:14 | 1.52205 | -77.33632 | 8680 ft | 206 kts | 179° |
| 2026-04-19 04:14 | 1.50737 | -77.33595 | 8691 ft | 208 kts | 180° |
| 2026-04-19 04:14 | 1.49292 | -77.33566 | 8699 ft | 207 kts | 180° |
| 2026-04-19 04:15 | 1.47947 | -77.33539 | 8689 ft | 183 kts | 180° |
| 2026-04-19 04:15 | 1.46697 | -77.33515 | 8697 ft | 177 kts | 180° |
| 2026-04-19 04:15 | 1.45469 | -77.33491 | 8704 ft | 177 kts | 180° |
| 2026-04-19 04:15 | 1.44262 | -77.33549 | 8703 ft | 175 kts | 192° |
| 2026-04-19 04:16 | 1.43109 | -77.33945 | 8709 ft | 174 kts | 208° |
| 2026-04-19 04:16 | 1.42039 | -77.34490 | 8706 ft | 174 kts | 208° |
| 2026-04-19 04:16 | 1.40943 | -77.35040 | 8711 ft | 174 kts | 208° |
| 2026-04-19 04:16 | 1.39878 | -77.35574 | 8717 ft | 174 kts | 208° |
| 2026-04-19 04:17 | 1.38779 | -77.36123 | 8710 ft | 174 kts | 208° |
| 2026-04-19 04:17 | 1.37683 | -77.36494 | 8651 ft | 160 kts | 190° |
| 2026-04-19 04:17 | 1.36634 | -77.36486 | 8478 ft | 146 kts | 172° |
| 2026-04-19 04:17 | 1.35677 | -77.36177 | 8200 ft | 144 kts | 153° |
| 2026-04-19 04:18 | 1.34866 | -77.35604 | 7951 ft | 143 kts | 136° |
| 2026-04-19 04:18 | 1.34260 | -77.34817 | 7607 ft | 144 kts | 118° |
| 2026-04-19 04:18 | 1.33920 | -77.33905 | 7321 ft | 143 kts | 101° |
| 2026-04-19 04:18 | 1.33868 | -77.32922 | 7122 ft | 141 kts | 80° |
| 2026-04-19 04:19 | 1.34256 | -77.32038 | 7095 ft | 141 kts | 48° |
| 2026-04-19 04:19 | 1.34965 | -77.31359 | 6980 ft | 141 kts | 38° |
| 2026-04-19 04:19 | 1.35732 | -77.30760 | 6818 ft | 139 kts | 32° |
| 2026-04-19 04:19 | 1.36522 | -77.30211 | 6558 ft | 138 kts | 30° |
| 2026-04-19 04:20 | 1.37364 | -77.29765 | 6300 ft | 135 kts | 19° |
| 2026-04-19 04:20 | 1.38255 | -77.29471 | 6091 ft | 135 kts | 12° |
| 2026-04-19 04:20 | 1.39133 | -77.29244 | 5947 ft | 121 kts | 13° |
| 2026-04-19 04:20 | 1.39934 | -77.29019 | 5892 ft | 122 kts | 5° |
| 2026-04-19 04:21 | 1.40690 | -77.28816 | 5847 ft | 97 kts | 13° |
| 2026-04-19 04:21 | 1.41013 | -77.28792 | 5749 ft | 12 kts | 252° |
| 2026-04-19 04:21 | 1.41011 | -77.28801 | 5749 ft | 0 kts | 256° |